Ekwok, AK (99580)

12:31 PM AKDT on April 18, 2015 (GMT -0800)
New Stuyahok AP, New Stuyahok | | Change Station
CLOSE
Current Station
Airport
Location: New Stuyahok AP, New Stuyahok,
Elevation: 302 ft
Nearby Weather Stations

Elev 302 ft 59.45 °N, 157.33 °W | Updated 35 minutes ago

Overcast
Overcast
37 °F
Feels Like 30 °F
N
9
Wind Variable Wind from SE
Gusts 16 mph

Today
High -- | Low -- °F
--% Chance of Precip.
Yesterday
High -- | Low -- °F
Precip. -- in
7:07 AM 9:53 PM
New Moon, 0% visible
Pressure 29.17 in
Visibility 6.0 miles
Clouds Overcast 1900 ft
Windchill 30 °F
Dew Point 34 °F
Humidity 89%
Rainfall 0.00 in
Snow Depth Not available.
UV 1 out of 12
Pollen Not available.
Air Quality Not available.
Flu Activity Sporadic
METAR PANW 181956Z AUTO 13008G14KT 6SM UP BR OVC019 03/01 A2923 RMK AO2 TSNO T00270011 UPB50 P0000 SLP877 $

More Conditions Fewer Conditions

Pressure 29.17 in
Visibility 6.0 miles
Clouds Overcast 1900 ft
Windchill 30 °F
Dew Point 34 °F
Humidity 89%
Rainfall 0.00 in
Snow Depth Not available.
UV 1 out of 12
Pollen Not available.
Air Quality Not available.
Flu Activity Sporadic
METAR PANW 181956Z AUTO 13008G14KT 6SM UP BR OVC019 03/01 A2923 RMK AO2 TSNO T00270011 UPB50 P0000 SLP877 $

More Conditions Fewer Conditions

10-Day Weather Forecast

Almanac

Astronomy

Apr. 18, 2015 Rise Set
Actual Time
Civil Twilight
Nautical Twilight
Astronomical Twilight
Moon
Length of Visible Light
Length of Day
Tomorrow will be .
, % of the Moon is Illuminated

Today's Extremes

State Highs State Lows

Community

WunderPhotos

Upload Photos

1,814,519 photos uploaded!

WunderBlogs® & News

Nearby

Air Quality

  Air Quality AQ Index Pollutant
Not available.

Snow Depth

Station Depth Elevation

Earthquake Activity

City Distance Mag. Time & Date
Minimum magnitude displayed is 2.5.

Coastal Water Temperatures

Place Temperature

Stations

Nearby Weather Stations

Station Location Temp. Windchill Dew Point Humidity Wind Precip. Elev Updated Type